sensor_id;sensor_type;location;lat;lon;timestamp;temperature;humidity
40932;DHT22;36257;46.052;12.540;2023-12-04T00:00:16;0.70;99.90
40932;DHT22;36257;46.052;12.540;2023-12-04T00:02:41;0.70;99.90
40932;DHT22;36257;46.052;12.540;2023-12-04T00:05:07;0.70;99.90
40932;DHT22;36257;46.052;12.540;2023-12-04T00:07:33;0.70;99.90
40932;DHT22;36257;46.052;12.540;2023-12-04T00:09:59;0.70;99.90
40932;DHT22;36257;46.052;12.540;2023-12-04T00:12:24;0.70;99.90
40932;DHT22;36257;46.052;12.540;2023-12-04T00:14:50;0.70;99.90
40932;DHT22;36257;46.052;12.540;2023-12-04T00:17:16;0.70;99.90
40932;DHT22;36257;46.052;12.540;2023-12-04T00:19:42;0.70;99.90
40932;DHT22;36257;46.052;12.540;2023-12-04T00:22:07;0.70;99.90
40932;DHT22;36257;46.052;12.540;2023-12-04T00:24:33;0.60;99.90
40932;DHT22;36257;46.052;12.540;2023-12-04T00:26:58;0.60;99.90
40932;DHT22;36257;46.052;12.540;2023-12-04T00:29:24;0.50;99.90
40932;DHT22;36257;46.052;12.540;2023-12-04T00:31:50;0.30;99.90
40932;DHT22;36257;46.052;12.540;2023-12-04T00:34:15;0.30;99.90
40932;DHT22;36257;46.052;12.540;2023-12-04T00:36:41;0.20;99.90
40932;DHT22;36257;46.052;12.540;2023-12-04T00:39:06;0.20;99.90
40932;DHT22;36257;46.052;12.540;2023-12-04T00:41:32;0.30;99.90
40932;DHT22;36257;46.052;12.540;2023-12-04T00:43:58;0.40;99.90
40932;DHT22;36257;46.052;12.540;2023-12-04T00:46:23;0.50;99.90
40932;DHT22;36257;46.052;12.540;2023-12-04T00:48:49;0.60;99.90
40932;DHT22;36257;46.052;12.540;2023-12-04T00:51:14;0.50;99.90
40932;DHT22;36257;46.052;12.540;2023-12-04T00:53:40;0.50;99.90
40932;DHT22;36257;46.052;12.540;2023-12-04T00:56:06;0.50;99.90
40932;DHT22;36257;46.052;12.540;2023-12-04T00:58:32;0.60;99.90
40932;DHT22;36257;46.052;12.540;2023-12-04T01:00:57;0.50;99.90
40932;DHT22;36257;46.052;12.540;2023-12-04T01:03:23;0.50;99.90
40932;DHT22;36257;46.052;12.540;2023-12-04T01:05:51;0.40;99.90
40932;DHT22;36257;46.052;12.540;2023-12-04T01:08:17;0.30;99.90
40932;DHT22;36257;46.052;12.540;2023-12-04T01:10:43;0.30;99.90
40932;DHT22;36257;46.052;12.540;2023-12-04T01:13:09;0.20;99.90
40932;DHT22;36257;46.052;12.540;2023-12-04T01:15:35;0.20;99.90
40932;DHT22;36257;46.052;12.540;2023-12-04T01:18:02;0.20;99.90
40932;DHT22;36257;46.052;12.540;2023-12-04T01:20:27;0.10;99.90
40932;DHT22;36257;46.052;12.540;2023-12-04T01:22:53;0.20;99.90
40932;DHT22;36257;46.052;12.540;2023-12-04T01:25:18;0.10;99.90
40932;DHT22;36257;46.052;12.540;2023-12-04T01:27:44;0.10;99.90
40932;DHT22;36257;46.052;12.540;2023-12-04T01:30:10;0.20;99.90
40932;DHT22;36257;46.052;12.540;2023-12-04T01:32:36;0.20;99.90
40932;DHT22;36257;46.052;12.540;2023-12-04T01:35:02;0.20;99.90
40932;DHT22;36257;46.052;12.540;2023-12-04T01:37:28;0.20;99.90
40932;DHT22;36257;46.052;12.540;2023-12-04T01:39:54;0.20;99.90
40932;DHT22;36257;46.052;12.540;2023-12-04T01:42:19;0.20;99.90
40932;DHT22;36257;46.052;12.540;2023-12-04T01:44:45;0.20;99.90
40932;DHT22;36257;46.052;12.540;2023-12-04T01:47:11;0.20;99.90
40932;DHT22;36257;46.052;12.540;2023-12-04T01:49:37;0.20;99.90
40932;DHT22;36257;46.052;12.540;2023-12-04T01:52:04;0.10;99.90
40932;DHT22;36257;46.052;12.540;2023-12-04T01:54:30;0.10;99.90
40932;DHT22;36257;46.052;12.540;2023-12-04T01:56:56;0.10;99.90
40932;DHT22;36257;46.052;12.540;2023-12-04T01:59:22;0.10;99.90
40932;DHT22;36257;46.052;12.540;2023-12-04T02:01:49;0.00;99.90
40932;DHT22;36257;46.052;12.540;2023-12-04T02:04:15;0.00;99.90
40932;DHT22;36257;46.052;12.540;2023-12-04T02:06:41;-0.10;99.90
40932;DHT22;36257;46.052;12.540;2023-12-04T02:09:06;0.00;99.90
40932;DHT22;36257;46.052;12.540;2023-12-04T02:11:37;0.00;99.90
40932;DHT22;36257;46.052;12.540;2023-12-04T02:14:02;-0.10;99.90
40932;DHT22;36257;46.052;12.540;2023-12-04T02:16:29;0.00;99.90
40932;DHT22;36257;46.052;12.540;2023-12-04T02:18:55;-0.10;99.90
40932;DHT22;36257;46.052;12.540;2023-12-04T02:21:21;-0.10;99.90
40932;DHT22;36257;46.052;12.540;2023-12-04T02:23:49;-0.10;99.90
40932;DHT22;36257;46.052;12.540;2023-12-04T02:26:16;-0.10;99.90
40932;DHT22;36257;46.052;12.540;2023-12-04T02:28:48;-0.10;99.90
40932;DHT22;36257;46.052;12.540;2023-12-04T02:31:16;-0.10;99.90
40932;DHT22;36257;46.052;12.540;2023-12-04T02:33:43;0.00;99.90
40932;DHT22;36257;46.052;12.540;2023-12-04T02:36:10;0.00;99.90
40932;DHT22;36257;46.052;12.540;2023-12-04T02:38:37;0.10;99.90
40932;DHT22;36257;46.052;12.540;2023-12-04T02:41:03;0.00;99.90
40932;DHT22;36257;46.052;12.540;2023-12-04T02:43:28;0.00;99.90
40932;DHT22;36257;46.052;12.540;2023-12-04T02:45:54;0.00;99.90
40932;DHT22;36257;46.052;12.540;2023-12-04T02:48:20;-0.10;99.90
40932;DHT22;36257;46.052;12.540;2023-12-04T02:50:45;-0.10;99.90
40932;DHT22;36257;46.052;12.540;2023-12-04T02:53:11;-0.10;99.90
40932;DHT22;36257;46.052;12.540;2023-12-04T02:55:37;-0.10;99.90
40932;DHT22;36257;46.052;12.540;2023-12-04T02:58:02;-0.10;99.90
40932;DHT22;36257;46.052;12.540;2023-12-04T03:00:28;-0.10;99.90
40932;DHT22;36257;46.052;12.540;2023-12-04T03:02:53;0.00;99.90
40932;DHT22;36257;46.052;12.540;2023-12-04T03:05:19;0.00;99.90
40932;DHT22;36257;46.052;12.540;2023-12-04T03:07:45;0.00;99.90
40932;DHT22;36257;46.052;12.540;2023-12-04T03:10:11;0.10;99.90
40932;DHT22;36257;46.052;12.540;2023-12-04T03:12:36;0.00;99.90
40932;DHT22;36257;46.052;12.540;2023-12-04T03:15:03;0.10;99.90
40932;DHT22;36257;46.052;12.540;2023-12-04T03:17:29;0.10;99.90
40932;DHT22;36257;46.052;12.540;2023-12-04T03:19:55;0.10;99.90
40932;DHT22;36257;46.052;12.540;2023-12-04T03:22:20;0.00;99.90
40932;DHT22;36257;46.052;12.540;2023-12-04T03:24:46;0.10;99.90
40932;DHT22;36257;46.052;12.540;2023-12-04T03:27:12;0.10;99.90
40932;DHT22;36257;46.052;12.540;2023-12-04T03:29:37;0.10;99.90
40932;DHT22;36257;46.052;12.540;2023-12-04T03:32:03;0.10;99.90
40932;DHT22;36257;46.052;12.540;2023-12-04T03:34:29;0.10;99.90
40932;DHT22;36257;46.052;12.540;2023-12-04T03:36:54;0.10;99.90
40932;DHT22;36257;46.052;12.540;2023-12-04T03:39:20;0.00;99.90
40932;DHT22;36257;46.052;12.540;2023-12-04T03:41:47;0.00;99.90
40932;DHT22;36257;46.052;12.540;2023-12-04T03:44:13;0.00;99.90
40932;DHT22;36257;46.052;12.540;2023-12-04T03:46:38;0.00;99.90
40932;DHT22;36257;46.052;12.540;2023-12-04T03:49:05;-0.10;99.90
40932;DHT22;36257;46.052;12.540;2023-12-04T03:51:31;-0.10;99.90
40932;DHT22;36257;46.052;12.540;2023-12-04T03:53:56;-0.20;99.90
40932;DHT22;36257;46.052;12.540;2023-12-04T03:56:22;-0.20;99.90
40932;DHT22;36257;46.052;12.540;2023-12-04T03:58:47;-0.10;99.90
40932;DHT22;36257;46.052;12.540;2023-12-04T04:01:13;-0.10;99.90
40932;DHT22;36257;46.052;12.540;2023-12-04T04:03:38;-0.10;99.90
40932;DHT22;36257;46.052;12.540;2023-12-04T04:06:04;-0.10;99.90
40932;DHT22;36257;46.052;12.540;2023-12-04T04:08:30;-0.10;99.90
40932;DHT22;36257;46.052;12.540;2023-12-04T04:10:56;-0.10;99.90
40932;DHT22;36257;46.052;12.540;2023-12-04T04:13:21;-0.10;99.90
40932;DHT22;36257;46.052;12.540;2023-12-04T04:15:47;-0.10;99.90
40932;DHT22;36257;46.052;12.540;2023-12-04T04:18:12;-0.10;99.90
40932;DHT22;36257;46.052;12.540;2023-12-04T04:20:38;-0.10;99.90
40932;DHT22;36257;46.052;12.540;2023-12-04T04:23:04;-0.10;99.90
40932;DHT22;36257;46.052;12.540;2023-12-04T04:25:29;-0.10;99.90
40932;DHT22;36257;46.052;12.540;2023-12-04T04:27:55;-0.10;99.90
40932;DHT22;36257;46.052;12.540;2023-12-04T04:30:20;-0.10;99.90
40932;DHT22;36257;46.052;12.540;2023-12-04T04:32:46;-0.10;99.90
40932;DHT22;36257;46.052;12.540;2023-12-04T04:35:12;-0.20;99.90
40932;DHT22;36257;46.052;12.540;2023-12-04T04:37:37;-0.20;99.90
40932;DHT22;36257;46.052;12.540;2023-12-04T04:40:03;-0.20;99.90
40932;DHT22;36257;46.052;12.540;2023-12-04T04:42:29;-0.30;99.90
40932;DHT22;36257;46.052;12.540;2023-12-04T04:44:55;-0.30;99.90
40932;DHT22;36257;46.052;12.540;2023-12-04T04:47:20;-0.30;99.90
40932;DHT22;36257;46.052;12.540;2023-12-04T04:49:46;-0.30;99.90
40932;DHT22;36257;46.052;12.540;2023-12-04T04:52:11;-0.30;99.90
40932;DHT22;36257;46.052;12.540;2023-12-04T04:54:37;-0.30;99.90
40932;DHT22;36257;46.052;12.540;2023-12-04T04:57:03;-0.20;99.90
40932;DHT22;36257;46.052;12.540;2023-12-04T04:59:29;-0.30;99.90
40932;DHT22;36257;46.052;12.540;2023-12-04T05:01:56;-0.30;99.90
40932;DHT22;36257;46.052;12.540;2023-12-04T05:04:22;-0.30;99.90
40932;DHT22;36257;46.052;12.540;2023-12-04T05:06:47;-0.30;99.90
40932;DHT22;36257;46.052;12.540;2023-12-04T05:09:13;-0.30;99.90
40932;DHT22;36257;46.052;12.540;2023-12-04T05:11:39;-0.30;99.90
40932;DHT22;36257;46.052;12.540;2023-12-04T05:14:04;-0.40;99.90
40932;DHT22;36257;46.052;12.540;2023-12-04T05:16:30;-0.50;99.90
40932;DHT22;36257;46.052;12.540;2023-12-04T05:18:55;-0.50;99.90
40932;DHT22;36257;46.052;12.540;2023-12-04T05:21:21;-0.40;99.90
40932;DHT22;36257;46.052;12.540;2023-12-04T05:23:47;-0.30;99.90
40932;DHT22;36257;46.052;12.540;2023-12-04T05:26:12;-0.30;99.90
40932;DHT22;36257;46.052;12.540;2023-12-04T05:28:38;-0.30;99.90
40932;DHT22;36257;46.052;12.540;2023-12-04T05:31:04;-0.30;99.90
40932;DHT22;36257;46.052;12.540;2023-12-04T05:33:30;-0.30;99.90
40932;DHT22;36257;46.052;12.540;2023-12-04T05:35:55;-0.30;99.90
40932;DHT22;36257;46.052;12.540;2023-12-04T05:38:21;-0.30;99.90
40932;DHT22;36257;46.052;12.540;2023-12-04T05:40:47;-0.20;99.90
40932;DHT22;36257;46.052;12.540;2023-12-04T05:43:12;-0.10;99.90
40932;DHT22;36257;46.052;12.540;2023-12-04T05:45:39;-0.10;99.90
40932;DHT22;36257;46.052;12.540;2023-12-04T05:48:05;-0.10;99.90
40932;DHT22;36257;46.052;12.540;2023-12-04T05:50:30;-0.10;99.90
40932;DHT22;36257;46.052;12.540;2023-12-04T05:52:56;-0.20;99.90
40932;DHT22;36257;46.052;12.540;2023-12-04T05:55:22;-0.30;99.90
40932;DHT22;36257;46.052;12.540;2023-12-04T05:57:48;-0.30;99.90
40932;DHT22;36257;46.052;12.540;2023-12-04T06:00:13;-0.30;99.90
40932;DHT22;36257;46.052;12.540;2023-12-04T06:02:41;-0.40;99.90
40932;DHT22;36257;46.052;12.540;2023-12-04T06:05:07;-0.30;99.90
40932;DHT22;36257;46.052;12.540;2023-12-04T06:07:33;-0.30;99.90
40932;DHT22;36257;46.052;12.540;2023-12-04T06:09:59;-0.30;99.90
40932;DHT22;36257;46.052;12.540;2023-12-04T06:12:25;-0.30;99.90
40932;DHT22;36257;46.052;12.540;2023-12-04T06:14:50;-0.30;99.90
40932;DHT22;36257;46.052;12.540;2023-12-04T06:17:16;-0.30;99.90
40932;DHT22;36257;46.052;12.540;2023-12-04T06:19:42;-0.30;99.90
40932;DHT22;36257;46.052;12.540;2023-12-04T06:22:07;-0.30;99.90
40932;DHT22;36257;46.052;12.540;2023-12-04T06:24:33;-0.30;99.90
40932;DHT22;36257;46.052;12.540;2023-12-04T06:26:59;-0.40;99.90
40932;DHT22;36257;46.052;12.540;2023-12-04T06:29:25;-0.40;99.90
40932;DHT22;36257;46.052;12.540;2023-12-04T06:31:51;-0.50;99.90
40932;DHT22;36257;46.052;12.540;2023-12-04T06:34:17;-0.50;99.90
40932;DHT22;36257;46.052;12.540;2023-12-04T06:36:43;-0.50;99.90
40932;DHT22;36257;46.052;12.540;2023-12-04T06:39:12;-0.40;99.90
40932;DHT22;36257;46.052;12.540;2023-12-04T06:41:40;-0.30;99.90
40932;DHT22;36257;46.052;12.540;2023-12-04T06:44:06;-0.20;99.90
40932;DHT22;36257;46.052;12.540;2023-12-04T06:46:36;-0.10;99.90
40932;DHT22;36257;46.052;12.540;2023-12-04T06:49:06;-0.10;99.90
40932;DHT22;36257;46.052;12.540;2023-12-04T06:51:34;0.00;99.90
40932;DHT22;36257;46.052;12.540;2023-12-04T06:53:59;0.00;99.90
40932;DHT22;36257;46.052;12.540;2023-12-04T06:56:25;0.10;99.90
40932;DHT22;36257;46.052;12.540;2023-12-04T06:58:51;0.00;99.90
40932;DHT22;36257;46.052;12.540;2023-12-04T07:01:16;0.00;99.90
40932;DHT22;36257;46.052;12.540;2023-12-04T07:03:42;0.10;99.90
40932;DHT22;36257;46.052;12.540;2023-12-04T07:06:08;0.10;99.90
40932;DHT22;36257;46.052;12.540;2023-12-04T07:08:34;0.20;99.90
40932;DHT22;36257;46.052;12.540;2023-12-04T07:10:59;0.30;99.90
40932;DHT22;36257;46.052;12.540;2023-12-04T07:13:25;0.40;99.90
40932;DHT22;36257;46.052;12.540;2023-12-04T07:15:50;0.50;99.90
40932;DHT22;36257;46.052;12.540;2023-12-04T07:18:16;0.60;99.90
40932;DHT22;36257;46.052;12.540;2023-12-04T07:20:42;0.70;99.90
40932;DHT22;36257;46.052;12.540;2023-12-04T07:23:08;0.70;99.90
40932;DHT22;36257;46.052;12.540;2023-12-04T07:25:33;0.70;99.90
40932;DHT22;36257;46.052;12.540;2023-12-04T07:27:59;0.80;99.90
40932;DHT22;36257;46.052;12.540;2023-12-04T07:30:25;0.70;99.90
40932;DHT22;36257;46.052;12.540;2023-12-04T07:32:51;0.80;99.90
40932;DHT22;36257;46.052;12.540;2023-12-04T07:35:17;0.90;99.90
40932;DHT22;36257;46.052;12.540;2023-12-04T07:37:43;0.90;99.90
40932;DHT22;36257;46.052;12.540;2023-12-04T07:40:09;1.00;99.90
40932;DHT22;36257;46.052;12.540;2023-12-04T07:42:36;1.10;99.90
40932;DHT22;36257;46.052;12.540;2023-12-04T07:45:02;1.20;99.90
40932;DHT22;36257;46.052;12.540;2023-12-04T07:47:28;1.30;99.90
40932;DHT22;36257;46.052;12.540;2023-12-04T07:49:54;1.40;99.90
40932;DHT22;36257;46.052;12.540;2023-12-04T07:52:19;1.50;99.90
40932;DHT22;36257;46.052;12.540;2023-12-04T07:54:45;1.50;99.90
40932;DHT22;36257;46.052;12.540;2023-12-04T07:57:10;1.60;99.90
40932;DHT22;36257;46.052;12.540;2023-12-04T07:59:36;1.70;99.90
40932;DHT22;36257;46.052;12.540;2023-12-04T08:02:02;1.80;99.90
40932;DHT22;36257;46.052;12.540;2023-12-04T08:04:27;1.90;99.90
40932;DHT22;36257;46.052;12.540;2023-12-04T08:06:53;2.00;99.90
40932;DHT22;36257;46.052;12.540;2023-12-04T08:09:19;2.10;99.90
40932;DHT22;36257;46.052;12.540;2023-12-04T08:11:45;2.10;99.90
40932;DHT22;36257;46.052;12.540;2023-12-04T08:14:11;2.20;99.20
40932;DHT22;36257;46.052;12.540;2023-12-04T08:16:36;2.30;99.60
40932;DHT22;36257;46.052;12.540;2023-12-04T08:19:03;2.40;99.90
40932;DHT22;36257;46.052;12.540;2023-12-04T08:21:28;2.40;99.60
40932;DHT22;36257;46.052;12.540;2023-12-04T08:23:54;2.50;98.10
40932;DHT22;36257;46.052;12.540;2023-12-04T08:26:23;2.60;97.60
40932;DHT22;36257;46.052;12.540;2023-12-04T08:28:50;2.70;97.00
40932;DHT22;36257;46.052;12.540;2023-12-04T08:31:16;2.70;95.40
40932;DHT22;36257;46.052;12.540;2023-12-04T08:33:42;2.70;95.90
40932;DHT22;36257;46.052;12.540;2023-12-04T08:36:08;2.80;96.40
40932;DHT22;36257;46.052;12.540;2023-12-04T08:38:34;2.90;95.90
40932;DHT22;36257;46.052;12.540;2023-12-04T08:41:00;3.00;95.20
40932;DHT22;36257;46.052;12.540;2023-12-04T08:43:25;3.00;95.50
40932;DHT22;36257;46.052;12.540;2023-12-04T08:45:51;3.00;96.20
40932;DHT22;36257;46.052;12.540;2023-12-04T08:48:17;3.10;96.80
40932;DHT22;36257;46.052;12.540;2023-12-04T08:50:42;3.20;95.80
40932;DHT22;36257;46.052;12.540;2023-12-04T08:53:08;3.30;95.90
40932;DHT22;36257;46.052;12.540;2023-12-04T08:55:33;3.30;95.00
40932;DHT22;36257;46.052;12.540;2023-12-04T08:57:59;3.30;95.60
40932;DHT22;36257;46.052;12.540;2023-12-04T09:00:25;3.30;96.50
40932;DHT22;36257;46.052;12.540;2023-12-04T09:02:51;3.30;96.70
40932;DHT22;36257;46.052;12.540;2023-12-04T09:05:16;3.40;96.00
40932;DHT22;36257;46.052;12.540;2023-12-04T09:07:42;3.40;94.20
40932;DHT22;36257;46.052;12.540;2023-12-04T09:10:08;3.40;94.60
40932;DHT22;36257;46.052;12.540;2023-12-04T09:12:34;3.40;95.00
40932;DHT22;36257;46.052;12.540;2023-12-04T09:15:02;3.50;94.10
40932;DHT22;36257;46.052;12.540;2023-12-04T09:17:28;3.40;92.40
40932;DHT22;36257;46.052;12.540;2023-12-04T09:19:53;3.30;93.00
40932;DHT22;36257;46.052;12.540;2023-12-04T09:22:19;3.40;93.90
40932;DHT22;36257;46.052;12.540;2023-12-04T09:24:45;3.40;94.40
40932;DHT22;36257;46.052;12.540;2023-12-04T09:27:11;3.50;94.00
40932;DHT22;36257;46.052;12.540;2023-12-04T09:29:36;3.60;94.00
40932;DHT22;36257;46.052;12.540;2023-12-04T09:32:03;3.60;94.60
40932;DHT22;36257;46.052;12.540;2023-12-04T09:34:29;3.70;92.80
40932;DHT22;36257;46.052;12.540;2023-12-04T09:36:54;3.80;92.20
40932;DHT22;36257;46.052;12.540;2023-12-04T09:39:20;3.80;91.60
40932;DHT22;36257;46.052;12.540;2023-12-04T09:41:46;4.00;90.20
40932;DHT22;36257;46.052;12.540;2023-12-04T09:44:12;4.00;90.50
40932;DHT22;36257;46.052;12.540;2023-12-04T09:46:38;3.90;91.50
40932;DHT22;36257;46.052;12.540;2023-12-04T09:49:04;3.80;91.30
40932;DHT22;36257;46.052;12.540;2023-12-04T09:51:30;3.80;90.90
40932;DHT22;36257;46.052;12.540;2023-12-04T09:53:57;3.90;90.30
40932;DHT22;36257;46.052;12.540;2023-12-04T09:56:25;3.90;89.40
40932;DHT22;36257;46.052;12.540;2023-12-04T09:58:57;3.90;89.90
40932;DHT22;36257;46.052;12.540;2023-12-04T10:01:24;4.00;90.20
40932;DHT22;36257;46.052;12.540;2023-12-04T10:03:50;4.00;90.10
40932;DHT22;36257;46.052;12.540;2023-12-04T10:06:16;4.10;90.10
40932;DHT22;36257;46.052;12.540;2023-12-04T10:11:13;4.10;87.70
40932;DHT22;36257;46.052;12.540;2023-12-04T10:21:04;4.20;87.60
40932;DHT22;36257;46.052;12.540;2023-12-04T10:36:11;5.80;82.90
40932;DHT22;36257;46.052;12.540;2023-12-04T10:56:47;5.70;84.80
40932;DHT22;36257;46.052;12.540;2023-12-04T11:09:36;5.50;84.80
40932;DHT22;36257;46.052;12.540;2023-12-04T11:12:11;5.40;82.90
40932;DHT22;36257;46.052;12.540;2023-12-04T11:14:46;5.40;85.00
40932;DHT22;36257;46.052;12.540;2023-12-04T11:17:14;5.30;85.40
40932;DHT22;36257;46.052;12.540;2023-12-04T11:19:55;5.10;86.10
40932;DHT22;36257;46.052;12.540;2023-12-04T11:22:25;5.10;86.50
40932;DHT22;36257;46.052;12.540;2023-12-04T13:03:14;5.70;88.50
40932;DHT22;36257;46.052;12.540;2023-12-04T13:05:41;5.60;88.80
40932;DHT22;36257;46.052;12.540;2023-12-04T13:08:06;5.60;88.80
40932;DHT22;36257;46.052;12.540;2023-12-04T13:10:32;5.70;89.30
40932;DHT22;36257;46.052;12.540;2023-12-04T13:12:58;5.70;90.50
40932;DHT22;36257;46.052;12.540;2023-12-04T13:15:28;5.70;90.90
40932;DHT22;36257;46.052;12.540;2023-12-04T13:17:53;5.90;91.00
40932;DHT22;36257;46.052;12.540;2023-12-04T13:20:19;5.90;91.40
40932;DHT22;36257;46.052;12.540;2023-12-04T13:22:44;6.00;88.90
40932;DHT22;36257;46.052;12.540;2023-12-04T13:25:11;5.90;87.90
40932;DHT22;36257;46.052;12.540;2023-12-04T13:27:39;5.90;87.70
40932;DHT22;36257;46.052;12.540;2023-12-04T13:30:08;5.80;89.20
40932;DHT22;36257;46.052;12.540;2023-12-04T13:32:36;5.90;87.20
40932;DHT22;36257;46.052;12.540;2023-12-04T13:35:02;5.90;86.20
40932;DHT22;36257;46.052;12.540;2023-12-04T13:37:30;5.80;85.80
40932;DHT22;36257;46.052;12.540;2023-12-04T13:39:56;5.70;84.50
40932;DHT22;36257;46.052;12.540;2023-12-04T13:42:32;5.60;87.30
40932;DHT22;36257;46.052;12.540;2023-12-04T13:45:16;5.50;89.50
40932;DHT22;36257;46.052;12.540;2023-12-04T13:47:42;5.50;91.50
40932;DHT22;36257;46.052;12.540;2023-12-04T13:50:09;5.40;91.30
40932;DHT22;36257;46.052;12.540;2023-12-04T13:52:35;5.20;92.80
40932;DHT22;36257;46.052;12.540;2023-12-04T13:55:02;5.30;92.60
40932;DHT22;36257;46.052;12.540;2023-12-04T13:57:36;5.20;91.40
40932;DHT22;36257;46.052;12.540;2023-12-04T14:00:10;5.00;91.80
40932;DHT22;36257;46.052;12.540;2023-12-04T14:02:36;4.90;92.70
40932;DHT22;36257;46.052;12.540;2023-12-04T14:05:03;5.00;93.20
40932;DHT22;36257;46.052;12.540;2023-12-04T14:07:29;5.10;93.00
40932;DHT22;36257;46.052;12.540;2023-12-04T14:09:54;5.10;93.90
40932;DHT22;36257;46.052;12.540;2023-12-04T14:12:20;5.10;94.40
40932;DHT22;36257;46.052;12.540;2023-12-04T14:14:45;5.10;94.90
40932;DHT22;36257;46.052;12.540;2023-12-04T14:17:12;5.00;95.80
40932;DHT22;36257;46.052;12.540;2023-12-04T14:19:38;5.00;95.00
40932;DHT22;36257;46.052;12.540;2023-12-04T14:22:05;5.10;94.50
40932;DHT22;36257;46.052;12.540;2023-12-04T14:24:31;5.20;93.90
40932;DHT22;36257;46.052;12.540;2023-12-04T14:26:56;5.00;94.70
40932;DHT22;36257;46.052;12.540;2023-12-04T14:29:22;4.90;95.60
40932;DHT22;36257;46.052;12.540;2023-12-04T14:31:48;4.70;97.00
40932;DHT22;36257;46.052;12.540;2023-12-04T14:34:13;4.50;97.30
40932;DHT22;36257;46.052;12.540;2023-12-04T14:36:39;4.40;97.00
40932;DHT22;36257;46.052;12.540;2023-12-04T14:39:06;4.40;96.70
40932;DHT22;36257;46.052;12.540;2023-12-04T14:41:32;4.30;97.30
40932;DHT22;36257;46.052;12.540;2023-12-04T14:43:57;4.30;97.10
40932;DHT22;36257;46.052;12.540;2023-12-04T14:46:23;4.30;97.20
40932;DHT22;36257;46.052;12.540;2023-12-04T14:48:49;4.40;97.20
40932;DHT22;36257;46.052;12.540;2023-12-04T14:51:15;4.60;96.90
40932;DHT22;36257;46.052;12.540;2023-12-04T14:53:41;4.70;96.60
40932;DHT22;36257;46.052;12.540;2023-12-04T14:56:17;4.80;96.40
40932;DHT22;36257;46.052;12.540;2023-12-04T14:58:42;4.90;96.50
40932;DHT22;36257;46.052;12.540;2023-12-04T15:01:11;4.90;97.00
40932;DHT22;36257;46.052;12.540;2023-12-04T15:03:56;4.80;97.80
40932;DHT22;36257;46.052;12.540;2023-12-04T15:06:56;4.60;97.90
40932;DHT22;36257;46.052;12.540;2023-12-04T15:09:22;4.70;98.20
40932;DHT22;36257;46.052;12.540;2023-12-04T15:12:06;4.60;98.00
40932;DHT22;36257;46.052;12.540;2023-12-04T15:14:40;4.60;98.00
40932;DHT22;36257;46.052;12.540;2023-12-04T15:17:22;4.70;97.90
40932;DHT22;36257;46.052;12.540;2023-12-04T15:20:10;4.70;97.00
40932;DHT22;36257;46.052;12.540;2023-12-04T15:22:36;4.50;97.40
40932;DHT22;36257;46.052;12.540;2023-12-04T15:53:23;4.60;97.80
40932;DHT22;36257;46.052;12.540;2023-12-04T15:55:49;4.60;97.80
40932;DHT22;36257;46.052;12.540;2023-12-04T15:58:15;4.60;97.90
40932;DHT22;36257;46.052;12.540;2023-12-04T16:00:41;4.60;98.20
40932;DHT22;36257;46.052;12.540;2023-12-04T16:03:10;4.50;98.60
40932;DHT22;36257;46.052;12.540;2023-12-04T16:08:10;4.40;99.00
40932;DHT22;36257;46.052;12.540;2023-12-04T16:10:38;4.10;99.40
40932;DHT22;36257;46.052;12.540;2023-12-04T16:13:16;4.10;99.60
40932;DHT22;36257;46.052;12.540;2023-12-04T16:15:54;4.10;99.60
40932;DHT22;36257;46.052;12.540;2023-12-04T16:29:10;4.20;99.60
40932;DHT22;36257;46.052;12.540;2023-12-04T16:31:36;4.20;99.70
40932;DHT22;36257;46.052;12.540;2023-12-04T16:34:01;4.40;99.80
40932;DHT22;36257;46.052;12.540;2023-12-04T16:36:27;4.40;99.60
40932;DHT22;36257;46.052;12.540;2023-12-04T16:38:53;4.40;99.40
40932;DHT22;36257;46.052;12.540;2023-12-04T16:41:19;4.30;99.40
40932;DHT22;36257;46.052;12.540;2023-12-04T16:43:44;4.30;99.40
40932;DHT22;36257;46.052;12.540;2023-12-04T16:46:11;4.30;99.30
40932;DHT22;36257;46.052;12.540;2023-12-04T16:48:37;4.40;99.40
40932;DHT22;36257;46.052;12.540;2023-12-04T16:51:03;4.30;98.80
40932;DHT22;36257;46.052;12.540;2023-12-04T16:53:29;4.20;98.60
40932;DHT22;36257;46.052;12.540;2023-12-04T16:55:57;4.10;99.10
40932;DHT22;36257;46.052;12.540;2023-12-04T16:58:23;4.00;99.70
40932;DHT22;36257;46.052;12.540;2023-12-04T17:00:48;3.90;99.90
40932;DHT22;36257;46.052;12.540;2023-12-04T17:03:14;3.90;99.90
40932;DHT22;36257;46.052;12.540;2023-12-04T17:05:40;4.00;99.90
40932;DHT22;36257;46.052;12.540;2023-12-04T17:08:06;4.10;99.90
40932;DHT22;36257;46.052;12.540;2023-12-04T17:10:31;4.20;99.90
40932;DHT22;36257;46.052;12.540;2023-12-04T17:12:57;4.30;99.90
40932;DHT22;36257;46.052;12.540;2023-12-04T17:15:23;4.30;99.90
40932;DHT22;36257;46.052;12.540;2023-12-04T17:17:49;4.30;99.90
40932;DHT22;36257;46.052;12.540;2023-12-04T17:20:14;4.30;99.90
40932;DHT22;36257;46.052;12.540;2023-12-04T17:22:40;4.20;99.90
40932;DHT22;36257;46.052;12.540;2023-12-04T17:25:09;4.30;99.90
40932;DHT22;36257;46.052;12.540;2023-12-04T17:27:35;4.20;99.90
40932;DHT22;36257;46.052;12.540;2023-12-04T17:30:01;4.20;99.90
40932;DHT22;36257;46.052;12.540;2023-12-04T17:32:26;4.20;99.90
40932;DHT22;36257;46.052;12.540;2023-12-04T17:34:52;4.10;99.90
40932;DHT22;36257;46.052;12.540;2023-12-04T17:37:18;4.10;99.90
40932;DHT22;36257;46.052;12.540;2023-12-04T17:39:44;4.10;99.50
40932;DHT22;36257;46.052;12.540;2023-12-04T17:42:09;4.20;99.30
40932;DHT22;36257;46.052;12.540;2023-12-04T17:44:35;4.20;98.90
40932;DHT22;36257;46.052;12.540;2023-12-04T17:47:03;4.20;98.90
40932;DHT22;36257;46.052;12.540;2023-12-04T17:49:28;4.20;98.90
40932;DHT22;36257;46.052;12.540;2023-12-04T17:51:54;4.00;99.50
40932;DHT22;36257;46.052;12.540;2023-12-04T17:54:20;4.00;99.80
40932;DHT22;36257;46.052;12.540;2023-12-04T17:56:45;4.00;99.70
40932;DHT22;36257;46.052;12.540;2023-12-04T17:59:11;3.90;99.90
40932;DHT22;36257;46.052;12.540;2023-12-04T18:01:37;3.90;99.80
40932;DHT22;36257;46.052;12.540;2023-12-04T18:04:02;4.00;99.70
40932;DHT22;36257;46.052;12.540;2023-12-04T18:06:31;3.90;99.80
40932;DHT22;36257;46.052;12.540;2023-12-04T18:08:57;3.90;99.90
40932;DHT22;36257;46.052;12.540;2023-12-04T18:11:22;3.90;99.90
40932;DHT22;36257;46.052;12.540;2023-12-04T18:13:48;3.90;99.90
40932;DHT22;36257;46.052;12.540;2023-12-04T18:16:14;3.90;99.90
40932;DHT22;36257;46.052;12.540;2023-12-04T18:18:42;3.90;99.90
40932;DHT22;36257;46.052;12.540;2023-12-04T18:21:08;3.80;99.90
40932;DHT22;36257;46.052;12.540;2023-12-04T18:23:34;3.80;99.90
40932;DHT22;36257;46.052;12.540;2023-12-04T18:26:00;3.80;99.90
40932;DHT22;36257;46.052;12.540;2023-12-04T18:28:26;3.80;99.90
40932;DHT22;36257;46.052;12.540;2023-12-04T18:30:52;3.70;99.90
40932;DHT22;36257;46.052;12.540;2023-12-04T18:33:18;3.60;99.90